Time;durP1;ratioP1;P1;durP2;ratioP2;P2;SDS_P1;SDS_P2;PMS_P1;PMS_P2;Temp;Humidity;BMP_temperature;BMP_pressure;BME280_temperature;BME280_humidity;BME280_pressure;Samples;Min_cycle;Max_cycle;Signal;HPM_P1;HPM_P2
2023/03/18 00:02:23;;;;;;;37.30;17.83;;;9.80;99.90;;;;;;5093436;28;20075;-75
2023/03/18 00:04:50;;;;;;;32.60;17.60;;;9.90;99.90;;;;;;5093429;28;20034;-79
2023/03/18 00:07:16;;;;;;;39.78;18.75;;;9.90;99.90;;;;;;5093786;28;20119;-76
2023/03/18 00:09:41;;;;;;;33.08;19.08;;;9.90;99.90;;;;;;5093815;28;20104;-76
2023/03/18 00:12:07;;;;;;;33.00;17.25;;;10.00;99.90;;;;;;5093517;28;20467;-76
2023/03/18 00:14:38;;;;;;;30.35;18.48;;;10.00;99.90;;;;;;5093688;28;20424;-76
2023/03/18 00:17:04;;;;;;;33.15;18.17;;;10.00;99.90;;;;;;5093459;28;20059;-75
2023/03/18 00:19:32;;;;;;;37.30;17.80;;;10.00;99.90;;;;;;5093044;28;20028;-77
2023/03/18 00:21:58;;;;;;;31.00;17.02;;;10.00;99.90;;;;;;5092196;28;20103;-75
2023/03/18 00:24:26;;;;;;;36.35;20.25;;;9.90;99.90;;;;;;5092447;28;20036;-75
2023/03/18 00:26:52;;;;;;;50.92;22.60;;;9.90;99.90;;;;;;5091489;28;20063;-77
2023/03/18 00:29:18;;;;;;;62.55;27.58;;;9.90;99.90;;;;;;5092711;28;20024;-74
2023/03/18 00:31:45;;;;;;;70.18;29.70;;;9.90;99.90;;;;;;5092578;28;20070;-75
2023/03/18 00:34:11;;;;;;;89.80;34.35;;;9.90;99.90;;;;;;5091891;28;20122;-74
2023/03/18 00:36:38;;;;;;;68.65;28.70;;;9.90;99.90;;;;;;5092649;28;20391;-74
2023/03/18 00:39:06;;;;;;;52.10;24.33;;;9.90;99.90;;;;;;5091792;28;20327;-75
2023/03/18 00:41:35;;;;;;;34.83;18.63;;;9.90;99.90;;;;;;5092560;28;20032;-75
2023/03/18 00:44:01;;;;;;;36.13;18.40;;;9.90;99.90;;;;;;5090413;28;20024;-75
2023/03/18 00:46:29;;;;;;;37.95;18.95;;;9.90;99.90;;;;;;5092439;28;20020;-75
2023/03/18 00:48:59;;;;;;;56.08;21.98;;;9.90;99.90;;;;;;5091313;28;20028;-75
2023/03/18 00:51:26;;;;;;;36.53;17.83;;;9.90;99.90;;;;;;5091992;28;20462;-75
2023/03/18 00:53:55;;;;;;;36.65;17.63;;;9.90;99.90;;;;;;5091879;28;20031;-77
2023/03/18 00:56:25;;;;;;;43.20;21.13;;;10.00;99.90;;;;;;5092255;28;20028;-75
2023/03/18 00:58:51;;;;;;;51.33;22.25;;;10.00;99.90;;;;;;5092071;28;20027;-80
2023/03/18 01:01:18;;;;;;;49.92;20.95;;;10.00;99.90;;;;;;5091947;28;20479;-76
2023/03/18 01:03:45;;;;;;;47.33;20.20;;;10.00;99.90;;;;;;5092098;28;20044;-75
2023/03/18 01:06:12;;;;;;;34.97;17.30;;;10.00;99.90;;;;;;5089858;28;20016;-75
2023/03/18 01:08:40;;;;;;;27.63;15.43;;;9.90;99.90;;;;;;5092112;28;20027;-75
2023/03/18 01:11:06;;;;;;;30.63;16.35;;;9.90;99.90;;;;;;5091361;28;20036;-76
2023/03/18 01:13:33;;;;;;;32.15;16.95;;;9.90;99.90;;;;;;5091803;28;20084;-76
2023/03/18 01:16:00;;;;;;;31.23;18.02;;;9.90;99.90;;;;;;5090116;28;20036;-76
2023/03/18 01:18:26;;;;;;;27.65;16.30;;;9.90;99.90;;;;;;5091820;28;20028;-76
2023/03/18 01:20:53;;;;;;;30.90;17.05;;;9.90;99.90;;;;;;5091264;28;20067;-79
2023/03/18 01:23:18;;;;;;;31.23;16.35;;;10.00;99.90;;;;;;5091252;28;20453;-76
2023/03/18 01:25:45;;;;;;;28.33;15.50;;;9.90;99.90;;;;;;5092591;28;20106;-76
2023/03/18 01:28:12;;;;;;;30.20;14.88;;;9.90;99.90;;;;;;5091752;28;20149;-76
2023/03/18 01:30:38;;;;;;;26.00;15.02;;;10.00;99.90;;;;;;5092056;28;20028;-75
2023/03/18 01:33:06;;;;;;;30.15;14.32;;;10.00;99.90;;;;;;5091562;28;20035;-76
2023/03/18 01:35:33;;;;;;;28.88;15.32;;;10.00;99.90;;;;;;5091904;28;20031;-76
2023/03/18 01:37:59;;;;;;;26.80;14.68;;;10.00;99.90;;;;;;5091300;28;20024;-75
2023/03/18 01:40:27;;;;;;;35.28;17.85;;;10.00;99.90;;;;;;5091962;28;20028;-76
2023/03/18 01:43:13;;;;;;;40.08;18.60;;;10.00;99.90;;;;;;5091635;28;20470;-79
2023/03/18 01:45:41;;;;;;;35.63;18.50;;;10.00;99.90;;;;;;5091755;28;20104;-76
2023/03/18 01:48:15;;;;;;;36.03;17.42;;;10.00;99.90;;;;;;5091327;28;20073;-76
2023/03/18 01:50:42;;;;;;;34.28;19.13;;;10.10;99.90;;;;;;5092027;28;20155;-76
2023/03/18 01:53:11;;;;;;;30.55;16.60;;;10.00;99.90;;;;;;5090940;28;20051;-75
2023/03/18 01:55:38;;;;;;;30.17;16.27;;;10.00;99.90;;;;;;5091521;28;20182;-75
2023/03/18 01:58:11;;;;;;;32.03;17.42;;;10.00;99.90;;;;;;5091006;28;20020;-75
2023/03/18 02:00:43;;;;;;;33.38;17.08;;;10.00;99.90;;;;;;5089227;28;20484;-75
2023/03/18 02:03:10;;;;;;;39.05;18.38;;;10.00;99.90;;;;;;5090638;28;20473;-76
2023/03/18 02:05:36;;;;;;;31.23;16.15;;;10.00;99.90;;;;;;5091230;28;20028;-77
2023/03/18 02:08:01;;;;;;;31.02;17.77;;;9.90;99.90;;;;;;5090610;28;20379;-75
2023/03/18 02:10:29;;;;;;;33.67;18.45;;;9.90;99.90;;;;;;5091549;28;20036;-75
2023/03/18 02:13:02;;;;;;;32.47;17.30;;;9.90;99.90;;;;;;5090842;28;20374;-80
2023/03/18 02:15:30;;;;;;;30.50;16.52;;;9.90;99.90;;;;;;5090603;28;20055;-76
2023/03/18 02:18:26;;;;;;;24.60;14.18;;;9.90;99.90;;;;;;5090641;28;20035;-80
2023/03/18 02:21:07;;;;;;;24.77;14.07;;;9.90;99.90;;;;;;5090747;28;20498;-76
2023/03/18 02:23:44;;;;;;;30.27;15.25;;;10.00;99.90;;;;;;5090976;28;20059;-76
2023/03/18 02:26:21;;;;;;;18.30;9.45;;;10.00;99.90;;;;;;5089131;28;20032;-76
2023/03/18 02:28:50;;;;;;;17.63;9.85;;;10.00;99.90;;;;;;5090467;28;20478;-76
2023/03/18 02:31:17;;;;;;;20.30;10.30;;;10.00;99.90;;;;;;5090195;28;20599;-77
2023/03/18 02:33:45;;;;;;;14.25;6.53;;;9.90;99.90;;;;;;5090791;28;20024;-75
2023/03/18 02:36:21;;;;;;;16.42;7.97;;;9.90;99.90;;;;;;5090354;28;20093;-77
2023/03/18 02:38:47;;;;;;;13.07;5.85;;;9.90;99.90;;;;;;5090889;28;20028;-75
2023/03/18 02:41:22;;;;;;;9.85;5.25;;;9.90;99.90;;;;;;5090247;28;20028;-75
2023/03/18 02:43:49;;;;;;;12.40;5.97;;;10.00;99.90;;;;;;5089648;28;20074;-75
2023/03/18 02:46:38;;;;;;;10.70;5.78;;;9.90;99.90;;;;;;5089055;28;20032;-75
2023/03/18 02:49:06;;;;;;;17.48;7.30;;;10.00;99.90;;;;;;5090448;28;20025;-76
2023/03/18 02:51:34;;;;;;;19.45;8.55;;;10.00;99.90;;;;;;5090972;28;20073;-75
2023/03/18 02:54:20;;;;;;;15.80;6.65;;;10.00;99.90;;;;;;5090324;28;20028;-76
2023/03/18 02:56:46;;;;;;;14.70;5.03;;;9.90;99.90;;;;;;5091065;28;20071;-75
2023/03/18 02:59:13;;;;;;;15.07;7.90;;;9.90;99.90;;;;;;5089186;28;20024;-75
2023/03/18 03:01:40;;;;;;;20.05;9.15;;;10.00;99.90;;;;;;5090750;28;20039;-75
2023/03/18 03:04:06;;;;;;;17.77;8.98;;;9.90;99.90;;;;;;5089803;28;20032;-76
2023/03/18 03:06:33;;;;;;;19.08;9.93;;;9.90;99.90;;;;;;5090573;28;20064;-76
2023/03/18 03:08:59;;;;;;;16.08;7.72;;;9.90;99.90;;;;;;5090377;28;20032;-79
2023/03/18 03:11:26;;;;;;;14.50;7.32;;;9.90;99.90;;;;;;5089844;28;20036;-75
2023/03/18 03:13:52;;;;;;;13.95;7.88;;;9.90;99.90;;;;;;5090724;28;20051;-76
2023/03/18 03:16:19;;;;;;;14.95;7.35;;;9.90;99.90;;;;;;5090150;28;20086;-76
2023/03/18 03:18:46;;;;;;;15.10;8.30;;;9.90;99.90;;;;;;5091191;28;20104;-76
2023/03/18 03:21:12;;;;;;;14.00;7.47;;;9.90;99.90;;;;;;5089935;28;20390;-76
2023/03/18 03:23:39;;;;;;;15.70;6.47;;;9.90;99.90;;;;;;5090035;28;20475;-76
2023/03/18 03:26:05;;;;;;;13.98;6.80;;;9.90;99.90;;;;;;5090188;28;20056;-76
2023/03/18 03:28:32;;;;;;;13.35;6.18;;;9.90;99.90;;;;;;5090720;28;20041;-76
2023/03/18 03:30:59;;;;;;;14.68;6.28;;;9.90;99.90;;;;;;5090298;28;20059;-76
2023/03/18 03:33:25;;;;;;;13.35;6.80;;;9.90;99.90;;;;;;5089947;28;20055;-76
2023/03/18 03:35:51;;;;;;;18.17;7.82;;;9.90;99.90;;;;;;5090497;28;20477;-76
2023/03/18 03:38:17;;;;;;;17.08;8.13;;;9.80;99.90;;;;;;5089488;28;20052;-76
2023/03/18 03:40:43;;;;;;;13.20;7.75;;;9.80;99.90;;;;;;5090202;28;20062;-76
2023/03/18 03:43:12;;;;;;;20.80;8.73;;;9.80;99.90;;;;;;5089854;28;20031;-76
2023/03/18 03:45:37;;;;;;;21.65;8.63;;;9.80;99.90;;;;;;5090105;28;20028;-76
2023/03/18 03:48:03;;;;;;;14.10;7.30;;;9.80;99.90;;;;;;5089904;28;20035;-78
2023/03/18 03:50:30;;;;;;;14.75;7.03;;;9.80;99.90;;;;;;5090426;28;20024;-75
2023/03/18 03:52:57;;;;;;;15.15;6.15;;;9.80;99.90;;;;;;5090186;28;20495;-75
2023/03/18 03:55:23;;;;;;;19.20;7.38;;;9.80;99.90;;;;;;5089608;28;20024;-76
2023/03/18 03:57:50;;;;;;;11.90;7.10;;;9.80;99.90;;;;;;5090362;28;20028;-75
2023/03/18 04:00:19;;;;;;;13.63;7.68;;;9.80;99.90;;;;;;5089701;28;20478;-76
2023/03/18 04:02:47;;;;;;;13.25;6.03;;;9.80;99.90;;;;;;5090355;28;20035;-76
2023/03/18 04:05:16;;;;;;;15.43;6.82;;;9.80;99.90;;;;;;5088409;28;20105;-75
2023/03/18 04:07:43;;;;;;;7.90;4.47;;;9.80;99.90;;;;;;5089973;28;20024;-75
2023/03/18 04:10:10;;;;;;;12.20;3.40;;;9.90;99.90;;;;;;5089881;28;20043;-77
2023/03/18 04:12:37;;;;;;;8.93;2.92;;;9.80;99.90;;;;;;5090088;28;20036;-75
2023/03/18 04:15:05;;;;;;;9.82;3.45;;;9.90;99.90;;;;;;5090178;28;20032;-79
2023/03/18 04:17:31;;;;;;;7.00;2.97;;;9.90;99.90;;;;;;5090282;28;20034;-76
2023/03/18 04:19:58;;;;;;;9.30;3.17;;;9.90;99.90;;;;;;5090144;28;20024;-76
2023/03/18 04:22:23;;;;;;;9.25;2.90;;;9.90;99.90;;;;;;5089413;28;20717;-76
2023/03/18 04:24:49;;;;;;;10.57;3.20;;;9.90;99.90;;;;;;5093470;28;20111;-76
2023/03/18 04:27:17;;;;;;;10.30;3.90;;;9.80;99.90;;;;;;5092407;28;20048;-75
2023/03/18 04:29:43;;;;;;;9.02;3.55;;;9.80;99.90;;;;;;5093641;28;20063;-75
2023/03/18 04:32:10;;;;;;;11.75;4.32;;;9.80;99.90;;;;;;5093025;28;20036;-75
2023/03/18 04:34:35;;;;;;;10.18;5.65;;;9.80;99.90;;;;;;5092406;28;20032;-76
2023/03/18 04:37:02;;;;;;;10.27;4.70;;;9.80;99.90;;;;;;5092768;28;20340;-75
2023/03/18 04:39:28;;;;;;;10.77;4.63;;;9.80;99.90;;;;;;5092594;28;20172;-75
2023/03/18 04:41:55;;;;;;;8.98;3.08;;;9.80;99.90;;;;;;5092848;28;20036;-75
2023/03/18 04:44:22;;;;;;;10.68;3.20;;;9.70;99.90;;;;;;5092480;28;20149;-76
2023/03/18 04:46:48;;;;;;;11.68;3.20;;;9.70;99.90;;;;;;5092856;28;20343;-77
2023/03/18 04:49:14;;;;;;;9.13;3.20;;;9.70;99.90;;;;;;5092487;28;20027;-76
2023/03/18 04:51:39;;;;;;;9.32;3.72;;;9.70;99.90;;;;;;5092883;28;20036;-76
2023/03/18 04:54:05;;;;;;;11.98;4.68;;;9.70;99.90;;;;;;5092947;28;20044;-79
2023/03/18 04:56:32;;;;;;;9.70;5.13;;;9.60;99.90;;;;;;5092478;28;20051;-76
2023/03/18 04:58:57;;;;;;;12.48;5.57;;;9.60;99.90;;;;;;5092910;28;20032;-76
2023/03/18 05:01:23;;;;;;;12.73;4.70;;;9.60;99.90;;;;;;5092124;28;20113;-76
2023/03/18 05:03:49;;;;;;;12.07;4.10;;;9.60;99.90;;;;;;5092774;28;20043;-77
2023/03/18 05:06:25;;;;;;;11.45;3.70;;;9.60;99.90;;;;;;5092402;28;20036;-76
2023/03/18 05:08:52;;;;;;;8.63;3.35;;;9.60;99.90;;;;;;5092386;28;20024;-76
2023/03/18 05:11:19;;;;;;;11.93;3.53;;;9.50;99.90;;;;;;5092030;28;20039;-76
2023/03/18 05:13:45;;;;;;;10.90;3.63;;;9.50;99.90;;;;;;5092677;28;20466;-76
2023/03/18 05:16:11;;;;;;;12.75;3.63;;;9.50;99.90;;;;;;5090469;28;20028;-77
2023/03/18 05:18:38;;;;;;;8.52;3.58;;;9.40;99.90;;;;;;5092264;28;20031;-76
2023/03/18 05:21:04;;;;;;;6.88;3.50;;;9.40;99.90;;;;;;5092697;28;20624;-75
2023/03/18 05:23:30;;;;;;;11.48;3.95;;;9.40;99.90;;;;;;5090497;28;20031;-76
2023/03/18 05:25:56;;;;;;;12.73;4.75;;;9.30;99.90;;;;;;5092163;28;20024;-76
2023/03/18 05:28:22;;;;;;;10.38;4.47;;;9.30;99.90;;;;;;5092147;28;20132;-76
2023/03/18 05:30:48;;;;;;;12.52;4.22;;;9.30;99.90;;;;;;5092584;28;20119;-76
2023/03/18 05:33:14;;;;;;;13.90;4.00;;;9.20;99.90;;;;;;5092292;28;20459;-76
2023/03/18 05:35:40;;;;;;;16.65;4.82;;;9.20;99.90;;;;;;5091679;28;20024;-76
2023/03/18 05:38:06;;;;;;;9.50;3.42;;;9.20;99.90;;;;;;5092798;28;20054;-76
2023/03/18 05:40:33;;;;;;;13.68;4.15;;;9.20;99.90;;;;;;5092066;28;20064;-76
2023/03/18 05:42:59;;;;;;;7.70;3.22;;;9.20;99.90;;;;;;5092534;28;20028;-76
2023/03/18 05:45:24;;;;;;;12.05;3.80;;;9.20;99.90;;;;;;5091523;28;20028;-76
2023/03/18 05:47:50;;;;;;;14.00;3.85;;;9.20;99.90;;;;;;5092163;28;20173;-74
2023/03/18 05:50:38;;;;;;;10.10;3.75;;;9.10;99.90;;;;;;5091330;28;20343;-75
2023/03/18 05:53:05;;;;;;;9.63;3.22;;;9.10;99.90;;;;;;5091698;28;20478;-75
2023/03/18 05:55:31;;;;;;;8.55;3.53;;;9.10;99.90;;;;;;5091355;28;20053;-77
2023/03/18 05:57:59;;;;;;;12.13;3.67;;;9.10;99.90;;;;;;5091487;28;20028;-75
2023/03/18 06:00:28;;;;;;;10.00;3.67;;;9.10;99.90;;;;;;5091371;28;20039;-76
2023/03/18 06:02:55;;;;;;;12.98;3.28;;;9.10;99.90;;;;;;5091740;28;20065;-75
2023/03/18 06:05:23;;;;;;;10.30;3.65;;;9.00;99.90;;;;;;5091603;28;20301;-76
2023/03/18 06:07:49;;;;;;;13.15;3.22;;;9.00;99.90;;;;;;5090387;28;20505;-75
2023/03/18 06:10:15;;;;;;;10.13;3.60;;;8.90;99.90;;;;;;5091141;28;20411;-76
2023/03/18 06:12:43;;;;;;;20.13;3.45;;;8.90;99.90;;;;;;5091851;28;20040;-76
2023/03/18 06:15:10;;;;;;;17.05;4.97;;;8.90;99.90;;;;;;5091200;28;20466;-76
2023/03/18 06:17:36;;;;;;;11.68;3.33;;;8.90;99.90;;;;;;5091003;28;20028;-75
2023/03/18 06:20:03;;;;;;;25.83;6.93;;;8.80;99.90;;;;;;5091208;28;20340;-76
2023/03/18 06:22:31;;;;;;;15.63;6.68;;;8.80;99.90;;;;;;5090882;28;20028;-76
2023/03/18 06:24:57;;;;;;;15.90;6.38;;;8.70;99.90;;;;;;5091549;28;20032;-76
2023/03/18 06:27:23;;;;;;;20.08;6.78;;;8.70;99.90;;;;;;5090531;28;20127;-76
2023/03/18 06:29:49;;;;;;;16.52;5.82;;;8.60;99.90;;;;;;5089879;28;20395;-74
2023/03/18 06:32:15;;;;;;;9.80;3.40;;;8.60;99.90;;;;;;5090394;28;20377;-77
2023/03/18 06:34:41;;;;;;;14.63;4.10;;;8.50;99.90;;;;;;5091087;28;20020;-75
2023/03/18 06:37:08;;;;;;;25.55;7.85;;;8.50;99.90;;;;;;5090928;28;20034;-76
2023/03/18 06:39:34;;;;;;;19.45;6.03;;;8.40;99.90;;;;;;5090570;28;20641;-76
2023/03/18 06:42:00;;;;;;;14.23;3.75;;;8.40;99.90;;;;;;5090867;28;20071;-76
2023/03/18 06:44:26;;;;;;;10.27;3.33;;;8.40;99.90;;;;;;5090387;28;20059;-76
2023/03/18 06:46:52;;;;;;;9.35;2.75;;;8.40;99.90;;;;;;5090779;28;20032;-76
2023/03/18 06:49:19;;;;;;;8.15;3.55;;;8.30;99.90;;;;;;5090248;28;20026;-76
2023/03/18 06:51:45;;;;;;;14.18;3.78;;;8.30;99.90;;;;;;5089170;28;20028;-76
2023/03/18 06:54:10;;;;;;;8.45;2.70;;;8.20;99.90;;;;;;5090785;28;20043;-76
2023/03/18 06:56:37;;;;;;;12.07;3.83;;;8.20;99.90;;;;;;5090300;28;20403;-76
2023/03/18 06:59:04;;;;;;;14.07;3.78;;;8.20;99.90;;;;;;5090603;28;20366;-75
2023/03/18 07:01:31;;;;;;;13.98;3.38;;;8.20;99.90;;;;;;5090060;28;20088;-75
2023/03/18 07:03:59;;;;;;;11.10;3.63;;;8.20;99.90;;;;;;5091045;28;20028;-75
2023/03/18 07:06:25;;;;;;;14.38;4.00;;;8.20;99.90;;;;;;5090220;28;20028;-75
2023/03/18 07:08:51;;;;;;;13.45;4.97;;;8.10;99.90;;;;;;5090701;28;20035;-75
2023/03/18 07:11:17;;;;;;;10.63;4.65;;;8.10;99.90;;;;;;5089991;28;20547;-78
2023/03/18 07:13:43;;;;;;;11.10;4.10;;;8.10;99.90;;;;;;5090629;28;20351;-76
2023/03/18 07:16:09;;;;;;;11.52;4.05;;;8.10;99.90;;;;;;5089541;28;20024;-76
2023/03/18 07:18:36;;;;;;;12.75;4.32;;;8.10;99.90;;;;;;5089977;28;20016;-76
2023/03/18 07:21:03;;;;;;;15.82;4.22;;;8.20;99.90;;;;;;5090368;28;20068;-76
2023/03/18 07:23:28;;;;;;;9.40;3.72;;;8.20;99.90;;;;;;5089927;28;20438;-76
2023/03/18 07:25:54;;;;;;;8.52;4.30;;;8.30;99.90;;;;;;5090738;28;20099;-75
2023/03/18 07:28:20;;;;;;;12.18;4.03;;;8.40;99.90;;;;;;5090428;28;20470;-76
2023/03/18 07:30:46;;;;;;;8.07;4.10;;;8.60;99.90;;;;;;5090358;28;20036;-76
2023/03/18 07:33:12;;;;;;;10.52;4.15;;;8.70;99.90;;;;;;5088982;28;20398;-76
2023/03/18 07:35:40;;;;;;;14.07;4.63;;;8.90;99.90;;;;;;5090299;28;20091;-75
2023/03/18 07:38:07;;;;;;;10.73;4.28;;;9.00;99.90;;;;;;5090423;28;20439;-76
2023/03/18 07:40:32;;;;;;;9.00;4.10;;;9.20;99.90;;;;;;5088565;28;20078;-76
2023/03/18 07:42:59;;;;;;;10.07;4.00;;;9.40;99.90;;;;;;5090601;28;20060;-76
2023/03/18 07:45:25;;;;;;;8.07;3.38;;;9.40;99.90;;;;;;5089856;28;20131;-76
2023/03/18 07:47:51;;;;;;;9.73;4.20;;;9.50;99.90;;;;;;5090748;28;20028;-75
2023/03/18 07:50:17;;;;;;;9.70;3.90;;;9.50;99.90;;;;;;5090195;28;20032;-76
2023/03/18 07:52:43;;;;;;;9.40;4.13;;;9.60;99.90;;;;;;5089843;28;20126;-75
2023/03/18 07:55:10;;;;;;;8.65;4.30;;;9.70;99.90;;;;;;5089942;28;20024;-75
2023/03/18 07:57:37;;;;;;;12.25;4.28;;;9.80;99.90;;;;;;5090093;28;20054;-76
2023/03/18 08:00:07;;;;;;;7.55;3.83;;;9.90;99.90;;;;;;5093505;28;20402;-75
2023/03/18 08:02:34;;;;;;;11.10;5.20;;;10.00;99.90;;;;;;5093782;28;20020;-75
2023/03/18 08:05:01;;;;;;;10.32;4.18;;;10.00;99.90;;;;;;5094061;28;20024;-75
2023/03/18 08:07:27;;;;;;;9.23;4.18;;;10.10;99.90;;;;;;5093523;28;20119;-76
2023/03/18 08:09:52;;;;;;;9.20;4.15;;;10.20;99.90;;;;;;5092670;28;20103;-75
2023/03/18 08:12:18;;;;;;;9.60;3.60;;;10.30;99.90;;;;;;5093871;28;20032;-75
2023/03/18 08:14:44;;;;;;;8.15;3.75;;;10.40;99.90;;;;;;5092053;28;20125;-76
2023/03/18 08:17:10;;;;;;;10.35;3.13;;;10.50;99.90;;;;;;5093256;28;20020;-74
2023/03/18 08:19:35;;;;;;;5.57;1.60;;;10.60;99.90;;;;;;5093150;28;20032;-76
2023/03/18 08:22:01;;;;;;;5.25;1.95;;;10.80;99.90;;;;;;5093534;28;20072;-76
2023/03/18 08:24:27;;;;;;;5.05;1.25;;;10.90;99.90;;;;;;5092780;28;20059;-75
2023/03/18 08:26:53;;;;;;;5.18;1.60;;;11.10;99.90;;;;;;5093092;28;20106;-75
2023/03/18 08:29:18;;;;;;;3.72;1.17;;;11.30;99.90;;;;;;5091725;28;20024;-76
2023/03/18 08:31:44;;;;;;;3.75;0.98;;;11.40;99.90;;;;;;5092543;28;20032;-76
2023/03/18 08:34:10;;;;;;;5.38;1.30;;;11.60;99.90;;;;;;5093247;28;20028;-75
2023/03/18 08:36:36;;;;;;;8.63;1.52;;;11.70;99.90;;;;;;5092890;28;20024;-75
2023/03/18 08:39:04;;;;;;;3.75;1.20;;;11.80;99.90;;;;;;5093241;28;20024;-76
2023/03/18 08:41:31;;;;;;;4.00;1.02;;;11.80;99.90;;;;;;5091397;28;20514;-75
2023/03/18 08:43:57;;;;;;;4.50;1.30;;;11.90;99.90;;;;;;5093282;28;20061;-75
2023/03/18 08:46:24;;;;;;;6.88;1.30;;;12.00;99.90;;;;;;5092891;28;20102;-78
2023/03/18 08:48:50;;;;;;;4.45;1.23;;;12.00;99.90;;;;;;5093141;28;20039;-75
2023/03/18 08:51:16;;;;;;;5.68;1.20;;;12.00;99.90;;;;;;5093174;28;20204;-75
2023/03/18 08:53:42;;;;;;;4.75;0.80;;;12.10;99.90;;;;;;5092417;28;20024;-75
2023/03/18 08:56:08;;;;;;;3.65;1.20;;;12.10;99.90;;;;;;5093111;28;20024;-76
2023/03/18 08:58:35;;;;;;;5.13;1.25;;;12.10;99.90;;;;;;5092627;28;20028;-75
2023/03/18 09:01:04;;;;;;;2.63;1.00;;;12.10;99.90;;;;;;5092616;28;20036;-73
2023/03/18 09:03:30;;;;;;;4.43;1.27;;;12.10;99.90;;;;;;5092318;28;20367;-73
2023/03/18 09:05:56;;;;;;;7.25;1.20;;;12.10;99.90;;;;;;5092776;28;20030;-74
2023/03/18 09:08:22;;;;;;;4.97;1.08;;;12.20;99.90;;;;;;5092148;28;20137;-75
2023/03/18 09:10:52;;;;;;;3.45;0.95;;;12.10;99.90;;;;;;5092169;28;20036;-75
2023/03/18 09:13:18;;;;;;;3.53;1.20;;;12.20;99.90;;;;;;5092512;28;20028;-75
2023/03/18 09:15:44;;;;;;;4.82;1.30;;;12.20;99.90;;;;;;5092135;28;20478;-75
2023/03/18 09:18:12;;;;;;;3.17;0.77;;;12.20;99.90;;;;;;5092395;28;20032;-75
2023/03/18 09:20:39;;;;;;;6.05;1.10;;;12.20;99.90;;;;;;5091862;28;20036;-75
2023/03/18 09:23:05;;;;;;;3.17;0.95;;;12.20;99.90;;;;;;5091958;28;20470;-75
2023/03/18 09:25:31;;;;;;;5.05;1.05;;;12.20;99.90;;;;;;5100995;28;20019;-75
2023/03/18 09:27:57;;;;;;;6.80;1.10;;;12.20;99.90;;;;;;5112644;28;20044;-75
2023/03/18 09:30:25;;;;;;;5.30;1.42;;;12.30;99.90;;;;;;5112540;28;20087;-75
2023/03/18 09:32:50;;;;;;;4.53;1.35;;;12.20;99.90;;;;;;5112248;28;20139;-74
2023/03/18 09:35:17;;;;;;;4.93;1.40;;;12.20;99.90;;;;;;5112520;28;20027;-75
2023/03/18 09:37:43;;;;;;;5.38;1.10;;;12.20;99.90;;;;;;5111690;28;20533;-75
2023/03/18 09:40:21;;;;;;;4.43;1.40;;;12.20;99.90;;;;;;5112505;28;20115;-75
2023/03/18 09:42:55;;;;;;;4.03;0.88;;;12.30;99.90;;;;;;5111982;28;20036;-75
2023/03/18 09:45:33;;;;;;;7.20;0.93;;;12.30;99.90;;;;;;5112534;28;20023;-76
2023/03/18 09:48:33;;;;;;;4.15;1.65;;;12.20;99.90;;;;;;5112196;28;20466;-75
2023/03/18 09:50:59;;;;;;;3.65;0.90;;;12.20;99.90;;;;;;5112122;28;20494;-75
2023/03/18 09:53:47;;;;;;;5.40;1.10;;;12.20;99.90;;;;;;5112251;28;20024;-77
2023/03/18 09:56:21;;;;;;;3.90;0.80;;;12.30;99.90;;;;;;5112146;28;20483;-75
2023/03/18 09:59:20;;;;;;;4.50;1.00;;;12.30;99.90;;;;;;5111758;28;20024;-74
2023/03/18 10:01:49;;;;;;;5.57;1.30;;;12.30;99.90;;;;;;5111344;28;20083;-74
2023/03/18 10:04:32;;;;;;;9.40;1.58;;;12.30;99.90;;;;;;5105697;28;20028;-75
2023/03/18 10:07:07;;;;;;;4.97;1.13;;;12.40;99.90;;;;;;5098177;28;20466;-75
2023/03/18 10:09:43;;;;;;;3.72;1.10;;;12.50;99.90;;;;;;5090983;28;20134;-76
2023/03/18 10:12:18;;;;;;;6.65;1.65;;;12.50;99.90;;;;;;5091447;28;20039;-76
2023/03/18 10:15:13;;;;;;;4.47;1.10;;;12.50;99.90;;;;;;5090967;28;20020;-75
2023/03/18 10:17:53;;;;;;;3.90;1.33;;;12.60;99.90;;;;;;5080736;28;20028;-74
2023/03/18 10:20:33;;;;;;;4.63;1.13;;;12.60;99.90;;;;;;5090661;28;20036;-75
2023/03/18 10:23:14;;;;;;;7.07;1.35;;;12.60;99.90;;;;;;5090084;28;20028;-75
2023/03/18 10:25:56;;;;;;;5.18;1.20;;;12.70;99.90;;;;;;5090638;28;20059;-75
2023/03/18 10:28:48;;;;;;;5.30;1.40;;;12.70;99.90;;;;;;5091131;28;20066;-75
2023/03/18 10:32:01;;;;;;;3.13;1.20;;;12.60;99.90;;;;;;5090875;28;20069;-75
2023/03/18 10:34:39;;;;;;;6.78;1.27;;;12.60;99.90;;;;;;5071749;28;20039;-76
2023/03/18 10:37:22;;;;;;;9.98;1.70;;;12.60;99.90;;;;;;5091046;28;20028;-76
2023/03/18 10:39:49;;;;;;;3.05;1.25;;;12.60;99.90;;;;;;5090701;28;20484;-75
2023/03/18 10:42:21;;;;;;;4.32;1.27;;;12.50;99.90;;;;;;5091133;28;20036;-76
2023/03/18 10:44:47;;;;;;;4.70;1.10;;;12.60;99.90;;;;;;5091937;28;20040;-75
2023/03/18 10:47:22;;;;;;;4.65;1.02;;;12.50;99.90;;;;;;5091925;28;20036;-75
2023/03/18 10:50:12;;;;;;;4.95;1.00;;;12.40;99.90;;;;;;5092424;28;20129;-76
2023/03/18 10:52:46;;;;;;;3.33;1.20;;;12.40;99.90;;;;;;5092920;28;20035;-76
2023/03/18 10:55:19;;;;;;;3.83;1.10;;;12.30;99.90;;;;;;5092866;28;20145;-75
2023/03/18 10:57:45;;;;;;;3.20;1.10;;;12.20;99.90;;;;;;5090683;28;20028;-76
2023/03/18 11:00:27;;;;;;;3.25;1.20;;;12.30;99.90;;;;;;5092280;28;20035;-75
2023/03/18 11:02:55;;;;;;;4.10;1.75;;;12.30;99.90;;;;;;5090625;28;20016;-75
2023/03/18 11:05:32;;;;;;;4.40;1.73;;;12.50;99.90;;;;;;5091639;28;20104;-75
2023/03/18 11:08:07;;;;;;;5.22;1.98;;;12.40;99.90;;;;;;5091435;28;20039;-75
2023/03/18 11:10:45;;;;;;;5.25;1.75;;;12.50;99.90;;;;;;5090793;28;20040;-80
2023/03/18 11:13:16;;;;;;;4.68;2.30;;;12.40;99.90;;;;;;5090828;28;20028;-80
2023/03/18 11:15:50;;;;;;;5.47;1.60;;;12.40;99.90;;;;;;5090998;28;20020;-76
2023/03/18 11:18:24;;;;;;;5.57;1.70;;;12.50;99.90;;;;;;5091303;28;20536;-76
2023/03/18 11:20:59;;;;;;;7.22;1.98;;;12.50;99.90;;;;;;5090679;28;20039;-76
2023/03/18 11:23:47;;;;;;;9.32;2.50;;;12.60;99.90;;;;;;5090813;28;20043;-75
2023/03/18 11:26:27;;;;;;;4.15;2.55;;;12.50;99.90;;;;;;5090652;28;20485;-75
2023/03/18 11:29:04;;;;;;;6.93;2.60;;;12.50;99.90;;;;;;5089857;28;20495;-75
2023/03/18 11:31:31;;;;;;;8.88;3.00;;;12.40;99.90;;;;;;5090861;28;20082;-74
2023/03/18 11:33:57;;;;;;;10.90;3.67;;;12.50;99.90;;;;;;5093732;28;20217;-75
2023/03/18 11:36:26;;;;;;;8.98;2.90;;;12.50;99.90;;;;;;5095660;28;20078;-75
2023/03/18 11:39:03;;;;;;;5.00;2.42;;;12.50;99.90;;;;;;5095042;28;20020;-75
2023/03/18 11:41:31;;;;;;;10.70;3.00;;;12.50;99.90;;;;;;5095384;28;20032;-76
2023/03/18 11:44:05;;;;;;;8.05;3.00;;;12.40;99.90;;;;;;5095083;28;20023;-76
2023/03/18 11:46:53;;;;;;;6.47;2.90;;;12.40;99.90;;;;;;5095593;28;20377;-76
2023/03/18 11:49:24;;;;;;;8.80;3.55;;;12.40;99.90;;;;;;5095342;28;20103;-76
2023/03/18 11:52:26;;;;;;;8.77;3.47;;;12.40;99.90;;;;;;5094828;28;20187;-74
2023/03/18 11:55:10;;;;;;;5.47;3.50;;;12.30;99.90;;;;;;5094658;28;20024;-75
2023/03/18 11:58:11;;;;;;;2.67;1.50;;;12.20;99.90;;;;;;5094950;28;20028;-79
2023/03/18 12:01:00;;;;;;;0.85;0.82;;;11.90;99.90;;;;;;5095105;28;20043;-80
2023/03/18 12:04:07;;;;;;;1.38;0.47;;;11.60;99.90;;;;;;5095185;28;20024;-77
2023/03/18 12:06:50;;;;;;;6.57;0.77;;;11.40;99.90;;;;;;5095074;28;20047;-75
2023/03/18 12:09:54;;;;;;;2.28;0.35;;;11.30;99.90;;;;;;5094395;28;20020;-76
2023/03/18 12:12:47;;;;;;;0.95;0.43;;;11.30;99.90;;;;;;5069735;28;20036;-77
2023/03/18 12:15:39;;;;;;;1.35;0.50;;;11.20;99.90;;;;;;5090821;28;20020;-76
2023/03/18 12:18:28;;;;;;;1.15;0.45;;;11.10;99.90;;;;;;5091674;28;20106;-75
2023/03/18 12:20:59;;;;;;;0.60;0.50;;;11.10;99.90;;;;;;5089356;28;20054;-75
2023/03/18 12:24:19;;;;;;;0.85;0.57;;;11.00;99.90;;;;;;5092742;28;20028;-75
2023/03/18 12:27:15;;;;;;;0.50;0.50;;;10.90;99.90;;;;;;5047839;28;20025;-75
2023/03/18 12:29:48;;;;;;;0.50;0.43;;;10.90;99.90;;;;;;5089439;28;20024;-76
2023/03/18 12:32:20;;;;;;;0.38;0.38;;;10.80;99.90;;;;;;5088763;28;20092;-77
2023/03/18 12:34:58;;;;;;;0.98;0.50;;;10.80;99.90;;;;;;5090971;28;20384;-75
2023/03/18 12:37:35;;;;;;;0.50;0.47;;;10.80;99.90;;;;;;5092440;28;20129;-77
2023/03/18 12:40:36;;;;;;;1.90;0.70;;;10.70;99.90;;;;;;5092921;28;20028;-76
2023/03/18 12:43:22;;;;;;;1.33;0.50;;;10.60;99.90;;;;;;5091553;28;20020;-76
2023/03/18 12:45:55;;;;;;;1.40;0.50;;;10.60;99.90;;;;;;5092972;28;20108;-77
2023/03/18 12:48:26;;;;;;;0.70;0.60;;;10.50;99.90;;;;;;5093657;28;20055;-77
2023/03/18 12:51:08;;;;;;;1.40;0.70;;;10.40;99.90;;;;;;5092637;28;20427;-77
2023/03/18 12:53:37;;;;;;;4.28;0.60;;;10.40;99.90;;;;;;5093766;28;20057;-77
2023/03/18 12:56:27;;;;;;;0.60;0.60;;;10.40;99.90;;;;;;5093283;28;20020;-78
2023/03/18 12:59:06;;;;;;;2.53;0.47;;;10.50;99.90;;;;;;5092358;28;20043;-76
2023/03/18 13:01:35;;;;;;;1.30;0.50;;;10.40;99.90;;;;;;5093677;28;20114;-77
2023/03/18 13:04:06;;;;;;;1.83;0.57;;;10.50;99.90;;;;;;5092701;28;20026;-77